Nearby METARS Reports

 

LFML - Marseille/Marign, France
Distance from station: O 47km
Mise à jour: 21/09/2018 04:00
clair
clair
 Wind from calm
Vent: calme
Température: 20°C
Point de rosée: 16°C
Humidité: 78%
Baromètre: 1016 hPa
Résumé: clair
Visibility: greater than 10 km
2018/09/21 02:00 LFML 210200Z AUTO 00000KT CAVOK 20/16 Q1016 NOSIG
LFMC - Le Luc/Le Cannet, France
Distance from station: ESE 48km
Mise à jour: 21/09/2018 04:00

 Wind from O
Vent: O 2 km/h
Température: 17°C
Point de rosée: 16°C
Humidité: 94%
Baromètre: 1016 hPa
Visibility: 10 km
2018/09/21 02:00 LFMC 210200Z AUTO 27001KT 9999 ////// 17/16 Q1016
LFTH - Hyeres/Le Palyve, France
Distance from station: SSE 53km
Mise à jour: 21/09/2018 04:00
clair
clair
 Wind from NO
Vent: NO 7 km/h
Température: 21°C
Point de rosée: 16°C
Humidité: 73%
Baromètre: 1015 hPa
Résumé: clair
Visibility: greater than 10 km
2018/09/21 02:00 LFTH 210200Z AUTO 32004KT CAVOK 21/16 Q1015 NOSIG